Trego, Montana
Current Conditions -  °F | °C
As of 7:08 PM on Thursday 18 Dec 2014 (Local Time) from KGPI Reporting Station
Haze Haze  
Wind Chill: 32°   Ceiling: 4800
Heat Index: 32°   Visibility: 6mi
Dew Point: 31°   Wind: 0mph
Humidity: 96%   Direction: NA
Pressure: 29.98"   Gusts: NA
Location:  48.71°N, 114.87°W
Report Text: KGPI 190208Z 00000KT 6SM BR FEW007 BKN048 OVC075 00/M01 A2998 RMK AO2 T00001006 $
Loading
Personal Weather Stations






























Interactive Weather Map New forecast layout! Learn more

10-Day Weather Forecast

Advertisements
Track Severe Weather on mobile